DucheSS Of Scandinavia — OUZI2 — position and weather

sailwx.info

Track history (hours):
 
Tides and Currents Weather Stations Pressure Air Temp Water Temp Dewpoint Dewpoint Depression Visibility Wind Speed Wind Dir Waves Ship Positions

DucheSS Of Scandinavia

Operator: DFDS A/S

Last reported at 2016-May-02 20:34 UTC. Time now 2016-May-02 21:18 UTC.
Position N 59°06' E 010°14'.

Length 134 m; draft 5.2 m.

Type: Passenger vessel. MMSI: 219002929.

Date/timePositionNaut miles runAvg speedWind from/ knotsBaromVisibWave heightAir tempDewpointWater temp
2016-May-02 20:34N 59°06' E 010°14'0 0.0
2016-May-02 19:34N 59°06' E 010°14'1 1.5
2016-May-02 18:34N 59°05' E 010°15'1413.6
2016-May-02 17:34N 59°01' E 010°40'1514.6
2016-May-02 16:34N 58°56' E 011°07'0 0.4
2016-May-02 15:33N 58°56' E 011°06'1515.3
2016-May-02 14:33N 59°01' E 010°38'1313.0
2016-May-02 13:33N 59°06' E 010°14'2 1.8
2016-May-02 12:34N 59°08' E 010°14'9 9.0
2016-May-02 11:34N 59°01' E 010°25'1515.2
2016-May-02 10:34N 59°00' E 010°55'9 9.0
2016-May-02 09:34N 58°56' E 011°10'5 4.5
2016-May-02 08:34N 58°58' E 011°02'1615.5
2016-May-02 07:33N 59°01' E 010°32'1211.7
2016-May-02 06:33N 59°07' E 010°14'0 0.2
2016-May-02 05:33N 59°08' E 010°14'1 0.7
2016-May-02 03:26N 59°06' E 010°14'0 0.0
2016-May-02 02:08N 59°06' E 010°14'0 0.0
2016-May-02 01:33N 59°06' E 010°14'0 0.0
2016-May-02 00:25N 59°06' E 010°14'0 0.0
2016-May-01 23:31N 59°06' E 010°14'0 0.0
2016-May-01 22:17N 59°06' E 010°14'0 0.0
2016-May-01 20:24N 59°06' E 010°14'1 1.7
2016-May-01 19:34N 59°08' E 010°14'4 3.7
2016-May-01 18:33N 59°04' E 010°15'1414.3
2016-May-01 17:33N 59°02' E 010°42'1514.8
2016-May-01 16:34N 58°56' E 011°09'1 1.0
2016-May-01 15:34N 58°56' E 011°07'1515.0
2016-May-01 14:33N 59°01' E 010°39'1413.5
2016-May-01 13:33N 59°05' E 010°14'2 2.3
2016-May-01 12:34N 59°08' E 010°14'9 9.3
2016-May-01 11:34N 59°01' E 010°26'1515.0
2016-May-01 10:34N 59°00' E 010°55'9 8.9
2016-May-01 09:34N 58°56' E 011°10'3 3.5
2016-May-01 08:34N 58°57' E 011°04'1615.7
2016-May-01 07:33N 59°01' E 010°34'1211.8
2016-May-01 06:30N 59°07' E 010°14'0 0.1
2016-May-01 05:33N 59°07' E 010°14'1 1.2
2016-May-01 04:34N 59°06' E 010°14'0 0.0
2016-May-01 03:34N 59°06' E 010°14'0 0.0
2016-May-01 02:34N 59°06' E 010°14'0 0.0
2016-May-01 01:33N 59°06' E 010°14'0 0.0
2016-May-01 00:34N 59°06' E 010°14'0 0.0
2016-Apr-30 23:33N 59°06' E 010°14'0 0.0
2016-Apr-30 22:33N 59°06' E 010°14'0 0.0
2016-Apr-30 21:33N 59°06' E 010°14'0 0.0
2016-Apr-30 20:33N 59°06' E 010°14'0 0.1
2016-Apr-30 19:34N 59°06' E 010°14'2 1.7
2016-Apr-30 18:34N 59°05' E 010°15'1413.9
2016-Apr-30 17:33N 59°01' E 010°41'1515.2
2016-Apr-30 16:34N 58°56' E 011°08'1 1.1
2016-Apr-30 15:33N 58°56' E 011°06'1515.3
2016-Apr-30 14:34N 59°01' E 010°39'1313.2
2016-Apr-30 13:33N 59°06' E 010°14'2 1.9
2016-Apr-30 12:34N 59°08' E 010°14'9 9.4
2016-Apr-30 11:34N 59°01' E 010°27'1514.9
2016-Apr-30 10:34N 59°00' E 010°55'9 8.8
2016-Apr-30 09:34N 58°56' E 011°10'4 4.3
2016-Apr-30 08:33N 58°58' E 011°03'1615.6
2016-Apr-30 07:33N 59°01' E 010°33'1212.0
2016-Apr-30 06:33N 59°07' E 010°14'0 0.2
2016-Apr-30 05:31N 59°07' E 010°14'1 0.7
2016-Apr-30 04:09N 59°06' E 010°14'0 0.0
2016-Apr-30 02:28N 59°06' E 010°14'0 0.0
2016-Apr-30 01:20N 59°06' E 010°14'0 0.0
2016-Apr-30 00:30N 59°06' E 010°14'0 0.0
2016-Apr-29 23:33N 59°06' E 010°14'0 0.0
2016-Apr-29 22:31N 59°06' E 010°14'0 0.0
2016-Apr-29 21:14N 59°06' E 010°14'0 0.0
2016-Apr-29 20:32N 59°06' E 010°14'1 0.6
2016-Apr-29 19:31N 59°07' E 010°14'2 2.2
2016-Apr-29 18:34N 59°05' E 010°15'1413.5
2016-Apr-29 17:34N 59°01' E 010°40'1515.2
2016-Apr-29 16:34N 58°56' E 011°08'0 0.3
2016-Apr-29 15:33N 58°56' E 011°08'1615.6
2016-Apr-29 14:34N 59°01' E 010°40'1413.8
2016-Apr-29 13:33N 59°05' E 010°14'2 2.4
2016-Apr-29 12:33N 59°08' E 010°14'9 9.4
2016-Apr-29 11:34N 59°01' E 010°26'1514.5
2016-Apr-29 10:34N 59°01' E 010°55'9 9.2
2016-Apr-29 09:33N 58°56' E 011°10'4 4.2
2016-Apr-29 08:34N 58°58' E 011°03'1515.1
2016-Apr-29 07:34N 59°01' E 010°34'1212.3
2016-Apr-29 06:33N 59°07' E 010°14'0 0.3
2016-Apr-29 05:33N 59°07' E 010°14'1 0.7
2016-Apr-29 04:33N 59°06' E 010°14'0 0.0
2016-Apr-29 03:32N 59°06' E 010°14'0 0.0
2016-Apr-29 02:33N 59°06' E 010°14'0 0.0
2016-Apr-29 01:33N 59°06' E 010°14'0 0.0
2016-Apr-29 00:33N 59°06' E 010°14'0 0.0
2016-Apr-28 23:33N 59°06' E 010°14'0 0.0
2016-Apr-28 22:34N 59°06' E 010°14'0 0.0
2016-Apr-28 21:33N 59°06' E 010°14'0 0.0
2016-Apr-28 20:33N 59°06' E 010°14'0 0.0
2016-Apr-28 19:33N 59°06' E 010°14'2 1.8
2016-Apr-28 18:34N 59°04' E 010°15'1414.4
2016-Apr-28 17:34N 59°01' E 010°42'1514.8
2016-Apr-28 16:34N 58°56' E 011°09'2 1.8
2016-Apr-28 15:34N 58°56' E 011°05'1515.5
2016-Apr-28 14:34N 59°01' E 010°37'1312.8
2016-Apr-28 13:32N 59°07' E 010°14'1 1.1
2016-Apr-28 12:33N 59°08' E 010°14'10 9.7
2016-Apr-28 11:34N 59°01' E 010°27'1514.6
2016-Apr-28 10:34N 59°00' E 010°55'9 8.7
2016-Apr-28 09:34N 58°56' E 011°10'4 4.3
2016-Apr-28 08:34N 58°58' E 011°03'1615.7
2016-Apr-28 07:34N 59°01' E 010°33'1211.7
2016-Apr-28 06:33N 59°07' E 010°14'0 0.1
2016-Apr-28 05:30N 59°07' E 010°14'1 0.8
2016-Apr-28 04:19N 59°06' E 010°14'0 0.0
2016-Apr-28 01:24N 59°06' E 010°14'0 0.0
2016-Apr-28 00:16N 59°06' E 010°14'0 0.0
2016-Apr-27 23:23N 59°06' E 010°14'0 0.0
2016-Apr-27 22:17N 59°06' E 010°14'0 0.0
2016-Apr-27 21:33N 59°06' E 010°14'0 0.0
2016-Apr-27 20:27N 59°06' E 010°14'1 1.3
2016-Apr-27 19:33N 59°07' E 010°14'1 1.1
2016-Apr-27 18:34N 59°06' E 010°14'1413.6
2016-Apr-27 17:34N 59°01' E 010°38'1515.5
2016-Apr-27 16:34N 58°56' E 011°07'0 0.2
2016-Apr-27 15:34N 58°56' E 011°06'1515.3
2016-Apr-27 14:33N 59°01' E 010°38'1313.4
2016-Apr-27 13:34N 59°06' E 010°14'2 1.7
2016-Apr-27 12:33N 59°08' E 010°14'10 9.8
2016-Apr-27 11:34N 59°01' E 010°27'1514.9
2016-Apr-27 10:34N 59°00' E 010°56'8 8.5
2016-Apr-27 09:34N 58°56' E 011°10'4 3.6
2016-Apr-27 08:33N 58°57' E 011°04'1615.6
2016-Apr-27 07:34N 59°00' E 010°34'1211.9
2016-Apr-27 06:31N 59°07' E 010°14'0 0.5
2016-Apr-27 05:33N 59°07' E 010°14'1 0.6
2016-Apr-27 04:34N 59°06' E 010°14'0 0.0
2016-Apr-27 03:34N 59°06' E 010°14'0 0.0
2016-Apr-27 02:33N 59°06' E 010°14'0 0.0
2016-Apr-27 01:33N 59°06' E 010°14'0 0.0
2016-Apr-27 00:34N 59°06' E 010°14'0 0.0
2016-Apr-26 23:33N 59°06' E 010°14'0 0.0
2016-Apr-26 22:33N 59°06' E 010°14'0 0.0
2016-Apr-26 21:33N 59°06' E 010°14'0 0.0
2016-Apr-26 20:33N 59°06' E 010°14'0 0.0
2016-Apr-26 19:33N 59°06' E 010°14'0 0.0
2016-Apr-26 18:33N 59°06' E 010°14'0 0.0
2016-Apr-26 17:34N 59°06' E 010°14'0 0.0
2016-Apr-26 16:33N 59°06' E 010°14'0 0.0
2016-Apr-26 15:33N 59°06' E 010°14'0 0.0
2016-Apr-26 14:33N 59°06' E 010°14'0 0.0
2016-Apr-26 13:33N 59°06' E 010°14'0 0.0
2016-Apr-26 12:34N 59°06' E 010°14'0 0.0
2016-Apr-26 11:34N 59°06' E 010°14'0 0.0
2016-Apr-26 10:33N 59°06' E 010°14'0 0.0
2016-Apr-26 09:33N 59°06' E 010°14'0 0.0
2016-Apr-26 08:33N 59°06' E 010°14'0 0.0
2016-Apr-26 07:33N 59°06' E 010°14'0 0.0
2016-Apr-26 06:34N 59°06' E 010°14'0 0.0
2016-Apr-26 05:34N 59°06' E 010°14'0 0.0
2016-Apr-26 04:34N 59°06' E 010°14'0 0.0
2016-Apr-26 03:33N 59°06' E 010°14'0 0.0
2016-Apr-26 02:34N 59°06' E 010°14'0 0.0
2016-Apr-26 01:34N 59°06' E 010°14'0 0.0
2016-Apr-26 00:33N 59°06' E 010°14'0 0.0
2016-Apr-25 23:34N 59°06' E 010°14'0 0.0
2016-Apr-25 22:33N 59°06' E 010°14'0 0.0
2016-Apr-25 21:33N 59°06' E 010°14'0 0.0
2016-Apr-25 20:33N 59°06' E 010°14'0 0.1
2016-Apr-25 19:33N 59°06' E 010°14'1 0.8
2016-Apr-25 18:34N 59°06' E 010°14'1313.4
2016-Apr-25 17:33N 59°01' E 010°39'1515.5
2016-Apr-25 16:34N 58°56' E 011°07'1 1.5
2016-Apr-25 15:33N 58°57' E 011°05'1616.3
2016-Apr-25 14:34N 59°01' E 010°34'1212.3
2016-Apr-25 13:33N 59°07' E 010°14'0 0.1
2016-Apr-25 12:34N 59°08' E 010°14'9 8.6
2016-Apr-25 11:34N 59°01' E 010°25'1615.6
2016-Apr-25 10:34N 59°00' E 010°55'9 9.0
2016-Apr-25 09:33N 58°56' E 011°10'4 4.5
2016-Apr-25 08:34N 58°58' E 011°02'1515.1
2016-Apr-25 07:33N 59°01' E 010°34'1211.8
2016-Apr-25 06:32N 59°07' E 010°14'1 1.0
2016-Apr-25 05:34N 59°06' E 010°14'0 0.1
2016-Apr-25 04:32N 59°06' E 010°14'0 0.0
2016-Apr-25 01:28N 59°06' E 010°14'0 0.0
2016-Apr-25 00:17N 59°06' E 010°14'0 0.0
2016-Apr-24 23:17N 59°06' E 010°14'0 0.0
2016-Apr-24 20:31N 59°06' E 010°14'0 0.0
2016-Apr-24 19:34N 59°06' E 010°14'1 0.7
2016-Apr-24 18:33N 59°06' E 010°14'1414.2
2016-Apr-24 17:33N 59°01' E 010°41'1515.5
2016-Apr-24 16:34N 58°56' E 011°09'2 2.0
2016-Apr-24 15:34N 58°56' E 011°05'1514.7
2016-Apr-24 14:34N 59°01' E 010°38'1313.2
2016-Apr-24 13:33N 59°06' E 010°14'2 1.6
2016-Apr-24 12:33N 59°08' E 010°14'1010.0
2016-Apr-24 11:34N 59°01' E 010°28'1514.8
2016-Apr-24 10:34N 59°00' E 010°56'8 8.2
2016-Apr-24 09:34N 58°56' E 011°10'5 4.6
2016-Apr-24 08:34N 58°58' E 011°02'1515.2
2016-Apr-24 07:33N 59°01' E 010°33'1211.9
2016-Apr-24 06:33N 59°07' E 010°14'1 0.9
2016-Apr-24 05:33N 59°06' E 010°14'0 0.2
2016-Apr-24 04:31N 59°06' E 010°14'0 0.0
2016-Apr-24 03:32N 59°06' E 010°14'0 0.0
2016-Apr-24 02:29N 59°06' E 010°14'0 0.0
2016-Apr-24 01:33N 59°06' E 010°14'0 0.0
2016-Apr-24 00:34N 59°06' E 010°14'0 0.0
2016-Apr-23 23:31N 59°06' E 010°14'0 0.0
2016-Apr-23 22:32N 59°06' E 010°14'0 0.0
2016-Apr-23 21:33N 59°06' E 010°14'0 0.0
2016-Apr-23 20:33N 59°06' E 010°14'1 0.5
2016-Apr-23 19:33N 59°07' E 010°14'2 1.9
2016-Apr-23 18:33N 59°05' E 010°15'1413.8
2016-Apr-23 17:34N 59°01' E 010°40'1514.9
2016-Apr-23 16:34N 58°56' E 011°08'1 1.3
2016-Apr-23 15:34N 58°56' E 011°05'1514.7
2016-Apr-23 14:34N 59°01' E 010°38'1313.3
2016-Apr-23 13:33N 59°06' E 010°14'1 1.2
2016-Apr-23 12:32N 59°07' E 010°14'1313.2
2016-Apr-23 11:34N 59°01' E 010°35'1716.5
2016-Apr-23 10:34N 58°56' E 011°06'2 2.2
2016-Apr-23 09:34N 58°56' E 011°10'4 4.5
2016-Apr-23 08:34N 58°58' E 011°02'1616.1
2016-Apr-23 07:34N 59°00' E 010°31'1211.5
2016-Apr-23 06:34N 59°08' E 010°14'1 0.6
2016-Apr-23 05:33N 59°07' E 010°14'1 0.7
2016-Apr-23 04:31N 59°06' E 010°14'0 0.0
2016-Apr-23 03:32N 59°06' E 010°14'0 0.0
2016-Apr-23 02:24N 59°06' E 010°14'0 0.0
2016-Apr-23 01:25N 59°06' E 010°14'0 0.0
2016-Apr-23 00:16N 59°06' E 010°14'0 0.0
2016-Apr-22 23:32N 59°06' E 010°14'0 0.0
2016-Apr-22 22:32N 59°06' E 010°14'0 0.0
2016-Apr-22 21:33N 59°06' E 010°14'  
Track history (hours):
 
Tides and Currents Weather Stations Pressure Air Temp Water Temp Dewpoint Dewpoint Depression Visibility Wind Speed Wind Dir Waves Ship Positions

DucheSS Of Scandinavia

Operator: DFDS A/S

Last reported at 2016-May-02 20:34 UTC. Time now 2016-May-02 21:18 UTC.
Position N 59°06' E 010°14'.

Length 134 m; draft 5.2 m.

Type: Passenger vessel. MMSI: 219002929.

Date/timePositionNaut miles runAvg speedWind from/ knotsBaromVisibWave heightAir tempDewpointWater temp
2016-May-02 20:34N 59°06' E 010°14'0 0.0
2016-May-02 19:34N 59°06' E 010°14'1 1.5
2016-May-02 18:34N 59°05' E 010°15'1413.6
2016-May-02 17:34N 59°01' E 010°40'1514.6
2016-May-02 16:34N 58°56' E 011°07'0 0.4
2016-May-02 15:33N 58°56' E 011°06'1515.3
2016-May-02 14:33N 59°01' E 010°38'1313.0
2016-May-02 13:33N 59°06' E 010°14'2 1.8
2016-May-02 12:34N 59°08' E 010°14'9 9.0
2016-May-02 11:34N 59°01' E 010°25'1515.2
2016-May-02 10:34N 59°00' E 010°55'9 9.0
2016-May-02 09:34N 58°56' E 011°10'5 4.5
2016-May-02 08:34N 58°58' E 011°02'1615.5
2016-May-02 07:33N 59°01' E 010°32'1211.7
2016-May-02 06:33N 59°07' E 010°14'0 0.2
2016-May-02 05:33N 59°08' E 010°14'1 0.7
2016-May-02 03:26N 59°06' E 010°14'0 0.0
2016-May-02 02:08N 59°06' E 010°14'0 0.0
2016-May-02 01:33N 59°06' E 010°14'0 0.0
2016-May-02 00:25N 59°06' E 010°14'0 0.0
2016-May-01 23:31N 59°06' E 010°14'0 0.0
2016-May-01 22:17N 59°06' E 010°14'0 0.0
2016-May-01 20:24N 59°06' E 010°14'1 1.7
2016-May-01 19:34N 59°08' E 010°14'4 3.7
2016-May-01 18:33N 59°04' E 010°15'1414.3
2016-May-01 17:33N 59°02' E 010°42'1514.8
2016-May-01 16:34N 58°56' E 011°09'1 1.0
2016-May-01 15:34N 58°56' E 011°07'1515.0
2016-May-01 14:33N 59°01' E 010°39'1413.5
2016-May-01 13:33N 59°05' E 010°14'2 2.3
2016-May-01 12:34N 59°08' E 010°14'9 9.3
2016-May-01 11:34N 59°01' E 010°26'1515.0
2016-May-01 10:34N 59°00' E 010°55'9 8.9
2016-May-01 09:34N 58°56' E 011°10'3 3.5
2016-May-01 08:34N 58°57' E 011°04'1615.7
2016-May-01 07:33N 59°01' E 010°34'1211.8
2016-May-01 06:30N 59°07' E 010°14'0 0.1
2016-May-01 05:33N 59°07' E 010°14'1 1.2
2016-May-01 04:34N 59°06' E 010°14'0 0.0
2016-May-01 03:34N 59°06' E 010°14'0 0.0
2016-May-01 02:34N 59°06' E 010°14'0 0.0
2016-May-01 01:33N 59°06' E 010°14'0 0.0
2016-May-01 00:34N 59°06' E 010°14'0 0.0
2016-Apr-30 23:33N 59°06' E 010°14'0 0.0
2016-Apr-30 22:33N 59°06' E 010°14'0 0.0
2016-Apr-30 21:33N 59°06' E 010°14'0 0.0
2016-Apr-30 20:33N 59°06' E 010°14'0 0.1
2016-Apr-30 19:34N 59°06' E 010°14'2 1.7
2016-Apr-30 18:34N 59°05' E 010°15'1413.9
2016-Apr-30 17:33N 59°01' E 010°41'1515.2
2016-Apr-30 16:34N 58°56' E 011°08'1 1.1
2016-Apr-30 15:33N 58°56' E 011°06'1515.3
2016-Apr-30 14:34N 59°01' E 010°39'1313.2
2016-Apr-30 13:33N 59°06' E 010°14'2 1.9
2016-Apr-30 12:34N 59°08' E 010°14'9 9.4
2016-Apr-30 11:34N 59°01' E 010°27'1514.9
2016-Apr-30 10:34N 59°00' E 010°55'9 8.8
2016-Apr-30 09:34N 58°56' E 011°10'4 4.3
2016-Apr-30 08:33N 58°58' E 011°03'1615.6
2016-Apr-30 07:33N 59°01' E 010°33'1212.0
2016-Apr-30 06:33N 59°07' E 010°14'0 0.2
2016-Apr-30 05:31N 59°07' E 010°14'1 0.7
2016-Apr-30 04:09N 59°06' E 010°14'0 0.0
2016-Apr-30 02:28N 59°06' E 010°14'0 0.0
2016-Apr-30 01:20N 59°06' E 010°14'0 0.0
2016-Apr-30 00:30N 59°06' E 010°14'0 0.0
2016-Apr-29 23:33N 59°06' E 010°14'0 0.0
2016-Apr-29 22:31N 59°06' E 010°14'0 0.0
2016-Apr-29 21:14N 59°06' E 010°14'0 0.0
2016-Apr-29 20:32N 59°06' E 010°14'1 0.6
2016-Apr-29 19:31N 59°07' E 010°14'2 2.2
2016-Apr-29 18:34N 59°05' E 010°15'1413.5
2016-Apr-29 17:34N 59°01' E 010°40'1515.2
2016-Apr-29 16:34N 58°56' E 011°08'0 0.3
2016-Apr-29 15:33N 58°56' E 011°08'1615.6
2016-Apr-29 14:34N 59°01' E 010°40'1413.8
2016-Apr-29 13:33N 59°05' E 010°14'2 2.4
2016-Apr-29 12:33N 59°08' E 010°14'9 9.4
2016-Apr-29 11:34N 59°01' E 010°26'1514.5
2016-Apr-29 10:34N 59°01' E 010°55'9 9.2
2016-Apr-29 09:33N 58°56' E 011°10'4 4.2
2016-Apr-29 08:34N 58°58' E 011°03'1515.1
2016-Apr-29 07:34N 59°01' E 010°34'1212.3
2016-Apr-29 06:33N 59°07' E 010°14'0 0.3
2016-Apr-29 05:33N 59°07' E 010°14'1 0.7
2016-Apr-29 04:33N 59°06' E 010°14'0 0.0
2016-Apr-29 03:32N 59°06' E 010°14'0 0.0
2016-Apr-29 02:33N 59°06' E 010°14'0 0.0
2016-Apr-29 01:33N 59°06' E 010°14'0 0.0
2016-Apr-29 00:33N 59°06' E 010°14'0 0.0
2016-Apr-28 23:33N 59°06' E 010°14'0 0.0
2016-Apr-28 22:34N 59°06' E 010°14'0 0.0
2016-Apr-28 21:33N 59°06' E 010°14'0 0.0
2016-Apr-28 20:33N 59°06' E 010°14'0 0.0
2016-Apr-28 19:33N 59°06' E 010°14'2 1.8
2016-Apr-28 18:34N 59°04' E 010°15'1414.4
2016-Apr-28 17:34N 59°01' E 010°42'1514.8
2016-Apr-28 16:34N 58°56' E 011°09'2 1.8
2016-Apr-28 15:34N 58°56' E 011°05'1515.5
2016-Apr-28 14:34N 59°01' E 010°37'1312.8
2016-Apr-28 13:32N 59°07' E 010°14'1 1.1
2016-Apr-28 12:33N 59°08' E 010°14'10 9.7
2016-Apr-28 11:34N 59°01' E 010°27'1514.6
2016-Apr-28 10:34N 59°00' E 010°55'9 8.7
2016-Apr-28 09:34N 58°56' E 011°10'4 4.3
2016-Apr-28 08:34N 58°58' E 011°03'1615.7
2016-Apr-28 07:34N 59°01' E 010°33'1211.7
2016-Apr-28 06:33N 59°07' E 010°14'0 0.1
2016-Apr-28 05:30N 59°07' E 010°14'1 0.8
2016-Apr-28 04:19N 59°06' E 010°14'0 0.0
2016-Apr-28 01:24N 59°06' E 010°14'0 0.0
2016-Apr-28 00:16N 59°06' E 010°14'0 0.0
2016-Apr-27 23:23N 59°06' E 010°14'0 0.0
2016-Apr-27 22:17N 59°06' E 010°14'0 0.0
2016-Apr-27 21:33N 59°06' E 010°14'0 0.0
2016-Apr-27 20:27N 59°06' E 010°14'1 1.3
2016-Apr-27 19:33N 59°07' E 010°14'1 1.1
2016-Apr-27 18:34N 59°06' E 010°14'1413.6
2016-Apr-27 17:34N 59°01' E 010°38'1515.5
2016-Apr-27 16:34N 58°56' E 011°07'0 0.2
2016-Apr-27 15:34N 58°56' E 011°06'1515.3
2016-Apr-27 14:33N 59°01' E 010°38'1313.4
2016-Apr-27 13:34N 59°06' E 010°14'2 1.7
2016-Apr-27 12:33N 59°08' E 010°14'10 9.8
2016-Apr-27 11:34N 59°01' E 010°27'1514.9
2016-Apr-27 10:34N 59°00' E 010°56'8 8.5
2016-Apr-27 09:34N 58°56' E 011°10'4 3.6
2016-Apr-27 08:33N 58°57' E 011°04'1615.6
2016-Apr-27 07:34N 59°00' E 010°34'1211.9
2016-Apr-27 06:31N 59°07' E 010°14'0 0.5
2016-Apr-27 05:33N 59°07' E 010°14'1 0.6
2016-Apr-27 04:34N 59°06' E 010°14'0 0.0
2016-Apr-27 03:34N 59°06' E 010°14'0 0.0
2016-Apr-27 02:33N 59°06' E 010°14'0 0.0
2016-Apr-27 01:33N 59°06' E 010°14'0 0.0
2016-Apr-27 00:34N 59°06' E 010°14'0 0.0
2016-Apr-26 23:33N 59°06' E 010°14'0 0.0
2016-Apr-26 22:33N 59°06' E 010°14'0 0.0
2016-Apr-26 21:33N 59°06' E 010°14'0 0.0
2016-Apr-26 20:33N 59°06' E 010°14'0 0.0
2016-Apr-26 19:33N 59°06' E 010°14'0 0.0
2016-Apr-26 18:33N 59°06' E 010°14'0 0.0
2016-Apr-26 17:34N 59°06' E 010°14'0 0.0
2016-Apr-26 16:33N 59°06' E 010°14'0 0.0
2016-Apr-26 15:33N 59°06' E 010°14'0 0.0
2016-Apr-26 14:33N 59°06' E 010°14'0 0.0
2016-Apr-26 13:33N 59°06' E 010°14'0 0.0
2016-Apr-26 12:34N 59°06' E 010°14'0 0.0
2016-Apr-26 11:34N 59°06' E 010°14'0 0.0
2016-Apr-26 10:33N 59°06' E 010°14'0 0.0
2016-Apr-26 09:33N 59°06' E 010°14'0 0.0
2016-Apr-26 08:33N 59°06' E 010°14'0 0.0
2016-Apr-26 07:33N 59°06' E 010°14'0 0.0
2016-Apr-26 06:34N 59°06' E 010°14'0 0.0
2016-Apr-26 05:34N 59°06' E 010°14'0 0.0
2016-Apr-26 04:34N 59°06' E 010°14'0 0.0
2016-Apr-26 03:33N 59°06' E 010°14'0 0.0
2016-Apr-26 02:34N 59°06' E 010°14'0 0.0
2016-Apr-26 01:34N 59°06' E 010°14'0 0.0
2016-Apr-26 00:33N 59°06' E 010°14'0 0.0
2016-Apr-25 23:34N 59°06' E 010°14'0 0.0
2016-Apr-25 22:33N 59°06' E 010°14'0 0.0
2016-Apr-25 21:33N 59°06' E 010°14'0 0.0
2016-Apr-25 20:33N 59°06' E 010°14'0 0.1
2016-Apr-25 19:33N 59°06' E 010°14'1 0.8
2016-Apr-25 18:34N 59°06' E 010°14'1313.4
2016-Apr-25 17:33N 59°01' E 010°39'1515.5
2016-Apr-25 16:34N 58°56' E 011°07'1 1.5
2016-Apr-25 15:33N 58°57' E 011°05'1616.3
2016-Apr-25 14:34N 59°01' E 010°34'1212.3
2016-Apr-25 13:33N 59°07' E 010°14'0 0.1
2016-Apr-25 12:34N 59°08' E 010°14'9 8.6
2016-Apr-25 11:34N 59°01' E 010°25'1615.6
2016-Apr-25 10:34N 59°00' E 010°55'9 9.0
2016-Apr-25 09:33N 58°56' E 011°10'4 4.5
2016-Apr-25 08:34N 58°58' E 011°02'1515.1
2016-Apr-25 07:33N 59°01' E 010°34'1211.8
2016-Apr-25 06:32N 59°07' E 010°14'1 1.0
2016-Apr-25 05:34N 59°06' E 010°14'0 0.1
2016-Apr-25 04:32N 59°06' E 010°14'0 0.0
2016-Apr-25 01:28N 59°06' E 010°14'0 0.0
2016-Apr-25 00:17N 59°06' E 010°14'0 0.0
2016-Apr-24 23:17N 59°06' E 010°14'0 0.0
2016-Apr-24 20:31N 59°06' E 010°14'0 0.0
2016-Apr-24 19:34N 59°06' E 010°14'1 0.7
2016-Apr-24 18:33N 59°06' E 010°14'1414.2
2016-Apr-24 17:33N 59°01' E 010°41'1515.5
2016-Apr-24 16:34N 58°56' E 011°09'2 2.0
2016-Apr-24 15:34N 58°56' E 011°05'1514.7
2016-Apr-24 14:34N 59°01' E 010°38'1313.2
2016-Apr-24 13:33N 59°06' E 010°14'2 1.6
2016-Apr-24 12:33N 59°08' E 010°14'1010.0
2016-Apr-24 11:34N 59°01' E 010°28'1514.8
2016-Apr-24 10:34N 59°00' E 010°56'8 8.2
2016-Apr-24 09:34N 58°56' E 011°10'5 4.6
2016-Apr-24 08:34N 58°58' E 011°02'1515.2
2016-Apr-24 07:33N 59°01' E 010°33'1211.9
2016-Apr-24 06:33N 59°07' E 010°14'1 0.9
2016-Apr-24 05:33N 59°06' E 010°14'0 0.2
2016-Apr-24 04:31N 59°06' E 010°14'0 0.0
2016-Apr-24 03:32N 59°06' E 010°14'0 0.0
2016-Apr-24 02:29N 59°06' E 010°14'0 0.0
2016-Apr-24 01:33N 59°06' E 010°14'0 0.0
2016-Apr-24 00:34N 59°06' E 010°14'0 0.0
2016-Apr-23 23:31N 59°06' E 010°14'0 0.0
2016-Apr-23 22:32N 59°06' E 010°14'0 0.0
2016-Apr-23 21:33N 59°06' E 010°14'0 0.0
2016-Apr-23 20:33N 59°06' E 010°14'1 0.5
2016-Apr-23 19:33N 59°07' E 010°14'2 1.9
2016-Apr-23 18:33N 59°05' E 010°15'1413.8
2016-Apr-23 17:34N 59°01' E 010°40'1514.9
2016-Apr-23 16:34N 58°56' E 011°08'1 1.3
2016-Apr-23 15:34N 58°56' E 011°05'1514.7
2016-Apr-23 14:34N 59°01' E 010°38'1313.3
2016-Apr-23 13:33N 59°06' E 010°14'1 1.2
2016-Apr-23 12:32N 59°07' E 010°14'1313.2
2016-Apr-23 11:34N 59°01' E 010°35'1716.5
2016-Apr-23 10:34N 58°56' E 011°06'2 2.2
2016-Apr-23 09:34N 58°56' E 011°10'4 4.5
2016-Apr-23 08:34N 58°58' E 011°02'1616.1
2016-Apr-23 07:34N 59°00' E 010°31'1211.5
2016-Apr-23 06:34N 59°08' E 010°14'1 0.6
2016-Apr-23 05:33N 59°07' E 010°14'1 0.7
2016-Apr-23 04:31N 59°06' E 010°14'0 0.0
2016-Apr-23 03:32N 59°06' E 010°14'0 0.0
2016-Apr-23 02:24N 59°06' E 010°14'0 0.0
2016-Apr-23 01:25N 59°06' E 010°14'0 0.0
2016-Apr-23 00:16N 59°06' E 010°14'0 0.0
2016-Apr-22 23:32N 59°06' E 010°14'0 0.0
2016-Apr-22 22:32N 59°06' E 010°14'0 0.0
2016-Apr-22 21:33N 59°06' E 010°14'  

Dump ship's entire track history